createdAt,value
2023-04-16T00:00:49.882Z,8.27
2023-04-16T00:03:16.772Z,8.28
2023-04-16T00:05:43.229Z,8.29
2023-04-16T00:08:09.581Z,8.30
2023-04-16T00:10:35.946Z,8.30
2023-04-16T00:13:02.411Z,8.30
2023-04-16T00:15:28.734Z,8.31
2023-04-16T00:17:55.128Z,8.30
2023-04-16T00:20:21.496Z,8.29
2023-04-16T00:22:47.854Z,8.30
2023-04-16T00:25:14.606Z,8.28
2023-04-16T00:27:41.003Z,8.28
2023-04-16T00:30:07.842Z,8.30
2023-04-16T00:32:34.349Z,8.30
2023-04-16T00:35:00.658Z,8.34
2023-04-16T00:37:27.034Z,8.32
2023-04-16T00:39:53.382Z,8.31
2023-04-16T00:42:20.048Z,8.28
2023-04-16T00:44:46.440Z,8.29
2023-04-16T00:47:12.867Z,8.29
2023-04-16T00:49:39.395Z,8.27
2023-04-16T00:52:06.227Z,8.25
2023-04-16T00:54:32.983Z,8.27
2023-04-16T00:56:59.984Z,8.25
2023-04-16T00:59:27.517Z,8.24
2023-04-16T01:01:53.950Z,8.22
2023-04-16T01:04:21.158Z,8.20
2023-04-16T01:06:47.625Z,8.21
2023-04-16T01:09:13.965Z,8.20
2023-04-16T01:11:40.307Z,8.20
2023-04-16T01:14:06.757Z,8.19
2023-04-16T01:16:33.143Z,8.19
2023-04-16T01:18:59.533Z,8.20
2023-04-16T01:21:26.425Z,8.19
2023-04-16T01:23:52.802Z,8.20
2023-04-16T01:26:19.102Z,8.19
2023-04-16T01:28:45.576Z,8.19
2023-04-16T01:31:11.974Z,8.19
2023-04-16T01:33:38.321Z,8.25
2023-04-16T01:36:04.807Z,8.25
2023-04-16T01:38:31.191Z,8.21
2023-04-16T01:40:58.003Z,8.20
2023-04-16T01:43:24.323Z,8.22
2023-04-16T01:45:50.914Z,8.23
2023-04-16T01:48:17.259Z,8.21
2023-04-16T01:50:43.608Z,8.23
2023-04-16T01:53:10.202Z,8.22
2023-04-16T01:55:36.510Z,8.21
2023-04-16T01:58:02.919Z,8.22
2023-04-16T02:00:29.350Z,8.20
2023-04-16T02:02:55.940Z,8.22
2023-04-16T02:05:22.362Z,8.23
2023-04-16T02:07:48.742Z,8.23
2023-04-16T02:10:15.198Z,8.24
2023-04-16T02:12:41.561Z,8.26
2023-04-16T02:15:08.340Z,8.26
2023-04-16T02:17:34.737Z,8.28
2023-04-16T02:20:03.185Z,8.28
2023-04-16T02:22:29.607Z,8.29
2023-04-16T02:24:55.916Z,8.31
2023-04-16T02:27:22.227Z,8.32
2023-04-16T02:29:48.692Z,8.34
2023-04-16T02:32:15.067Z,8.34
2023-04-16T02:34:42.532Z,8.35
2023-04-16T02:37:09.366Z,8.35
2023-04-16T02:39:35.705Z,8.36
2023-04-16T02:42:02.635Z,8.38
2023-04-16T02:44:29.374Z,8.38
2023-04-16T02:46:55.782Z,8.39
2023-04-16T02:49:22.116Z,8.38
2023-04-16T02:51:48.445Z,8.38
2023-04-16T02:54:14.756Z,8.39
2023-04-16T02:56:41.063Z,8.39
2023-04-16T02:59:07.552Z,8.41
2023-04-16T03:01:34.200Z,8.41
2023-04-16T03:04:00.550Z,8.40
2023-04-16T03:06:27.022Z,8.41
2023-04-16T03:08:53.336Z,8.40
2023-04-16T03:11:20.287Z,8.39
2023-04-16T03:13:46.773Z,8.40
2023-04-16T03:16:13.160Z,8.41
2023-04-16T03:18:39.486Z,8.40
2023-04-16T03:21:06.187Z,8.41
2023-04-16T03:23:32.521Z,8.40
2023-04-16T03:25:58.876Z,8.40
2023-04-16T03:28:26.134Z,8.39
2023-04-16T03:30:53.521Z,8.39
2023-04-16T03:33:20.592Z,8.39
2023-04-16T03:35:46.974Z,8.39
2023-04-16T03:38:13.326Z,8.40
2023-04-16T03:40:39.652Z,8.40
2023-04-16T03:43:06.257Z,8.41
2023-04-16T03:45:32.565Z,8.42
2023-04-16T03:47:59.053Z,8.44
2023-04-16T03:50:25.704Z,8.45
2023-04-16T03:52:52.030Z,8.43
2023-04-16T03:55:18.335Z,8.42
2023-04-16T03:57:44.669Z,8.43
2023-04-16T04:00:11.653Z,8.43
2023-04-16T04:02:38.053Z,8.44
2023-04-16T04:05:04.963Z,8.44
2023-04-16T04:07:31.371Z,8.42
2023-04-16T04:09:57.686Z,8.40
2023-04-16T04:12:24.019Z,8.40
2023-04-16T04:14:50.709Z,8.41
2023-04-16T04:17:17.032Z,8.40
2023-04-16T04:19:54.247Z,8.40
2023-04-16T04:22:27.256Z,8.41
2023-04-16T04:24:53.589Z,8.42
2023-04-16T04:27:19.953Z,8.42
2023-04-16T04:29:46.586Z,8.40
2023-04-16T04:32:12.968Z,8.39
2023-04-16T04:34:39.301Z,8.39
2023-04-16T04:37:05.647Z,8.39
2023-04-16T04:39:31.995Z,8.37
2023-04-16T04:41:58.402Z,8.37
2023-04-16T04:44:24.709Z,8.37
2023-04-16T04:46:51.074Z,8.35
2023-04-16T04:49:17.479Z,8.33
2023-04-16T04:51:43.844Z,8.33
2023-04-16T04:54:10.212Z,8.31
2023-04-16T04:56:36.546Z,8.29
2023-04-16T04:59:02.866Z,8.29
2023-04-16T05:01:29.279Z,8.30
2023-04-16T05:03:55.805Z,8.29
2023-04-16T05:06:22.170Z,8.29
2023-04-16T05:08:48.552Z,8.32
2023-04-16T05:11:14.973Z,8.32
2023-04-16T05:13:41.273Z,8.31
2023-04-16T05:16:07.729Z,8.32
2023-04-16T05:18:34.098Z,8.31
2023-04-16T05:21:00.477Z,8.31
2023-04-16T05:23:26.823Z,8.30
2023-04-16T05:25:53.145Z,8.30
2023-04-16T05:28:19.462Z,8.32
2023-04-16T05:30:46.040Z,8.33
2023-04-16T05:33:12.396Z,8.33
2023-04-16T05:35:38.721Z,8.34
2023-04-16T05:38:05.179Z,8.35
2023-04-16T05:40:32.097Z,8.37
2023-04-16T05:42:58.397Z,8.39
2023-04-16T05:45:26.666Z,8.38
2023-04-16T05:47:54.216Z,8.37
2023-04-16T05:50:20.613Z,8.38
2023-04-16T05:52:46.968Z,8.38
2023-04-16T05:55:13.289Z,8.41
2023-04-16T05:57:39.657Z,8.42
2023-04-16T06:00:06.836Z,8.41
2023-04-16T06:02:33.637Z,8.42
2023-04-16T06:05:00.283Z,8.44
2023-04-16T06:07:26.609Z,8.44
2023-04-16T06:09:52.948Z,8.48
2023-04-16T06:12:19.270Z,8.50
2023-04-16T06:14:45.610Z,8.52
2023-04-16T06:17:12.159Z,8.52
2023-04-16T06:19:38.488Z,8.51
2023-04-16T06:22:06.395Z,8.51
2023-04-16T06:24:32.933Z,8.51
2023-04-16T06:26:59.242Z,8.54
2023-04-16T06:29:33.671Z,8.55
2023-04-16T06:32:07.771Z,8.55
2023-04-16T06:34:34.134Z,8.55
2023-04-16T06:37:01.177Z,8.60
2023-04-16T06:39:27.498Z,8.60
2023-04-16T06:41:53.888Z,8.62
2023-04-16T06:44:20.234Z,8.64
2023-04-16T06:46:46.552Z,8.65
2023-04-16T06:49:12.939Z,8.66
2023-04-16T06:51:39.290Z,8.67
2023-04-16T06:54:06.111Z,8.67
2023-04-16T06:56:32.485Z,8.72
2023-04-16T06:59:00.831Z,8.73
2023-04-16T07:01:28.000Z,8.77
2023-04-16T07:03:54.778Z,8.73
2023-04-16T07:06:21.249Z,8.76
2023-04-16T07:08:47.615Z,8.77
2023-04-16T07:11:14.135Z,8.74
2023-04-16T07:13:40.864Z,8.76
2023-04-16T07:16:07.457Z,8.76
2023-04-16T07:18:33.821Z,8.79
2023-04-16T07:21:00.352Z,8.81
2023-04-16T07:23:26.665Z,8.81
2023-04-16T07:25:53.025Z,8.82
2023-04-16T07:28:20.168Z,8.83
2023-04-16T07:30:46.527Z,8.81
2023-04-16T07:33:12.852Z,8.80
2023-04-16T07:35:39.204Z,8.84
2023-04-16T07:38:05.996Z,8.85
2023-04-16T07:40:33.023Z,8.86
2023-04-16T07:42:59.376Z,8.90
2023-04-16T07:45:25.698Z,8.92
2023-04-16T07:47:52.116Z,8.91
2023-04-16T07:50:19.408Z,8.94
2023-04-16T07:52:47.218Z,8.93
2023-04-16T07:55:13.581Z,8.92
2023-04-16T07:57:41.020Z,8.95
2023-04-16T08:00:08.376Z,8.94
2023-04-16T08:02:34.948Z,8.98
2023-04-16T08:05:01.508Z,9.03
2023-04-16T08:07:27.900Z,9.05
2023-04-16T08:09:54.544Z,9.11
2023-04-16T08:12:21.287Z,9.14
2023-04-16T08:14:48.475Z,9.16
2023-04-16T08:17:15.516Z,9.19
2023-04-16T08:19:42.744Z,9.22
2023-04-16T08:22:09.270Z,9.25
2023-04-16T08:24:35.718Z,9.28
2023-04-16T08:27:15.113Z,9.28
2023-04-16T08:29:44.607Z,9.29
2023-04-16T08:32:11.073Z,9.31
2023-04-16T08:34:37.618Z,9.31
2023-04-16T08:37:03.991Z,9.34
2023-04-16T08:39:30.442Z,9.38
2023-04-16T08:41:57.966Z,9.39
2023-04-16T08:44:27.644Z,9.37
2023-04-16T08:46:59.060Z,9.44
2023-04-16T08:49:26.966Z,9.48
2023-04-16T08:51:55.102Z,9.50
2023-04-16T08:54:56.875Z,9.53
2023-04-16T08:57:26.765Z,9.58
2023-04-16T08:59:55.091Z,9.66
2023-04-16T09:02:21.839Z,9.69
2023-04-16T09:04:50.561Z,9.67
2023-04-16T09:07:19.451Z,9.75
2023-04-16T09:09:49.666Z,9.84
2023-04-16T09:12:17.348Z,9.89
2023-04-16T09:14:46.934Z,9.93
2023-04-16T09:17:14.033Z,9.95
2023-04-16T09:19:40.437Z,9.96
2023-04-16T09:22:06.745Z,9.92
2023-04-16T09:24:34.324Z,10.01
2023-04-16T09:27:00.949Z,10.04
2023-04-16T09:29:38.246Z,10.01
2023-04-16T09:32:06.906Z,10.01
2023-04-16T09:34:34.412Z,10.05
2023-04-16T09:37:17.535Z,10.07
2023-04-16T09:39:44.960Z,10.10
2023-04-16T09:42:12.152Z,10.08
2023-04-16T09:44:38.914Z,10.10
2023-04-16T09:47:07.727Z,10.13
2023-04-16T09:49:43.643Z,10.12
2023-04-16T09:52:17.853Z,10.09
2023-04-16T09:54:51.638Z,10.12
2023-04-16T09:57:22.977Z,10.14
2023-04-16T09:59:53.987Z,10.15
2023-04-16T10:02:20.874Z,10.18
2023-04-16T10:04:51.663Z,10.18
2023-04-16T10:07:18.985Z,10.19
2023-04-16T10:09:48.354Z,10.15
2023-04-16T10:12:15.947Z,10.14
2023-04-16T10:14:42.646Z,10.10
2023-04-16T10:17:09.836Z,10.02
2023-04-16T10:19:36.818Z,10.08
2023-04-16T10:22:03.851Z,10.11
2023-04-16T10:24:31.893Z,10.17
2023-04-16T10:26:59.513Z,10.19
2023-04-16T10:29:27.842Z,10.25
2023-04-16T10:31:55.994Z,10.22
2023-04-16T10:34:24.210Z,10.20
2023-04-16T10:36:52.888Z,10.20
2023-04-16T10:39:22.426Z,10.18
2023-04-16T10:41:49.414Z,10.21
2023-04-16T10:44:17.760Z,10.29
2023-04-16T10:46:51.226Z,10.26
2023-04-16T10:49:24.392Z,10.23
2023-04-16T10:51:58.991Z,10.22
2023-04-16T10:54:32.082Z,10.26
2023-04-16T10:57:04.260Z,10.31
2023-04-16T10:59:33.357Z,10.34
2023-04-16T11:02:01.794Z,10.38
2023-04-16T11:04:34.032Z,10.46
2023-04-16T11:07:02.914Z,10.52
2023-04-16T11:10:01.951Z,10.41
2023-04-16T11:12:47.155Z,10.38
2023-04-16T11:15:19.495Z,10.38
2023-04-16T11:17:47.843Z,10.37
2023-04-16T11:20:21.850Z,10.41
2023-04-16T11:22:49.453Z,10.47
2023-04-16T11:25:27.148Z,10.57
2023-04-16T11:27:54.543Z,10.64
2023-04-16T11:30:33.761Z,10.60
2023-04-16T11:33:04.101Z,10.57
2023-04-16T11:35:30.529Z,10.47
2023-04-16T11:37:58.026Z,10.41
2023-04-16T11:40:25.261Z,10.32
2023-04-16T11:42:51.605Z,10.31
2023-04-16T11:45:21.031Z,10.33
2023-04-16T11:47:52.171Z,10.34
2023-04-16T11:50:18.770Z,10.36
2023-04-16T11:52:45.244Z,10.40
2023-04-16T11:55:11.952Z,10.35
2023-04-16T11:57:38.328Z,10.42
2023-04-16T12:00:13.956Z,10.41
2023-04-16T12:02:45.944Z,10.43
2023-04-16T12:05:31.819Z,10.52
2023-04-16T12:07:59.640Z,10.52
2023-04-16T12:10:27.023Z,10.53
2023-04-16T12:12:53.426Z,10.55
2023-04-16T12:15:19.795Z,10.62
2023-04-16T12:17:46.174Z,10.64
2023-04-16T12:20:15.308Z,10.72
2023-04-16T12:22:47.293Z,10.81
2023-04-16T12:25:15.788Z,10.84
2023-04-16T12:27:54.050Z,10.75
2023-04-16T12:30:22.829Z,10.69
2023-04-16T12:32:51.530Z,10.64
2023-04-16T12:35:31.684Z,10.67
2023-04-16T12:37:58.280Z,10.69
2023-04-16T12:40:24.675Z,10.68
2023-04-16T12:42:51.244Z,10.66
2023-04-16T12:45:17.602Z,10.70
2023-04-16T12:47:43.978Z,10.72
2023-04-16T12:50:10.812Z,10.73
2023-04-16T12:52:37.276Z,10.70
2023-04-16T12:55:03.763Z,10.75
2023-04-16T12:57:30.332Z,10.72
2023-04-16T12:59:57.534Z,10.75
2023-04-16T13:02:25.302Z,10.72
2023-04-16T13:04:52.691Z,10.80
2023-04-16T13:07:19.710Z,10.77
2023-04-16T13:09:46.573Z,10.80
2023-04-16T13:14:53.702Z,10.80
2023-04-16T13:17:20.094Z,10.83
2023-04-16T13:19:46.590Z,10.90
2023-04-16T13:22:12.988Z,10.97
2023-04-16T13:24:39.489Z,10.98
2023-04-16T13:27:07.862Z,11.06
2023-04-16T13:29:36.590Z,11.06
2023-04-16T13:32:03.950Z,11.11
2023-04-16T13:34:30.422Z,11.20
2023-04-16T13:36:56.731Z,11.18
2023-04-16T13:39:23.077Z,11.11
2023-04-16T13:41:50.290Z,11.05
2023-04-16T13:44:16.611Z,11.10
2023-04-16T13:46:47.784Z,11.12
2023-04-16T13:49:14.692Z,11.08
2023-04-16T13:51:44.583Z,11.06
2023-04-16T13:54:10.957Z,11.10
2023-04-16T13:56:37.426Z,11.07
2023-04-16T13:59:03.810Z,11.12
2023-04-16T14:01:30.220Z,11.15
2023-04-16T14:03:56.622Z,11.14
2023-04-16T14:06:22.958Z,11.13
2023-04-16T14:08:49.309Z,11.09
2023-04-16T14:11:15.750Z,11.16
2023-04-16T14:13:42.214Z,11.15
2023-04-16T14:16:08.630Z,11.25
2023-04-16T14:18:35.842Z,11.42
2023-04-16T14:21:02.181Z,11.43
2023-04-16T14:23:28.604Z,11.49
2023-04-16T14:25:55.266Z,11.64
2023-04-16T14:28:21.633Z,11.71
2023-04-16T14:30:47.975Z,11.72
2023-04-16T14:33:14.293Z,11.81
2023-04-16T14:35:41.328Z,11.75
2023-04-16T14:38:07.727Z,11.74
2023-04-16T14:40:34.493Z,11.76
2023-04-16T14:43:00.940Z,11.68
2023-04-16T14:45:28.863Z,11.65
2023-04-16T14:47:55.246Z,11.62
2023-04-16T14:50:21.748Z,11.65
2023-04-16T14:52:48.320Z,11.54
2023-04-16T14:55:14.645Z,11.54
2023-04-16T14:57:41.576Z,11.61
2023-04-16T15:00:11.841Z,11.58
2023-04-16T15:02:38.490Z,11.70
2023-04-16T15:05:05.338Z,11.79
2023-04-16T15:07:31.697Z,11.78
2023-04-16T15:09:58.693Z,11.68
2023-04-16T15:12:26.365Z,11.68
2023-04-16T15:14:52.730Z,11.66
2023-04-16T15:17:20.333Z,11.73
2023-04-16T15:19:46.800Z,11.70
2023-04-16T15:22:14.668Z,11.68
2023-04-16T15:24:41.099Z,11.77
2023-04-16T15:27:08.522Z,11.82
2023-04-16T15:29:36.845Z,11.78
2023-04-16T15:32:03.290Z,11.75
2023-04-16T15:34:30.280Z,11.67
2023-04-16T15:36:56.615Z,11.64
2023-04-16T15:39:22.940Z,11.70
2023-04-16T15:42:00.717Z,11.73
2023-04-16T15:44:28.120Z,11.64
2023-04-16T15:46:54.505Z,11.62
2023-04-16T15:49:20.868Z,11.58
2023-04-16T15:51:47.270Z,11.49
2023-04-16T15:54:13.694Z,11.40
2023-04-16T15:56:40.160Z,11.41
2023-04-16T15:59:06.522Z,11.32
2023-04-16T16:01:33.991Z,11.29
2023-04-16T16:04:00.650Z,11.24
2023-04-16T16:06:27.169Z,11.21
2023-04-16T16:08:54.426Z,11.23
2023-04-16T16:11:21.737Z,11.19
2023-04-16T16:13:48.223Z,11.15
2023-04-16T16:16:15.295Z,11.11
2023-04-16T16:18:42.161Z,11.16
2023-04-16T16:21:08.693Z,11.12
2023-04-16T16:23:35.035Z,11.01
2023-04-16T16:26:01.629Z,11.02
2023-04-16T16:28:28.068Z,11.06
2023-04-16T16:30:55.476Z,11.05
2023-04-16T16:33:22.013Z,11.04
2023-04-16T16:35:48.385Z,11.03
2023-04-16T16:38:15.221Z,11.03
2023-04-16T16:40:41.532Z,11.03
2023-04-16T16:43:08.139Z,11.02
2023-04-16T16:45:34.492Z,10.98
2023-04-16T16:48:00.893Z,10.98
2023-04-16T16:50:27.447Z,11.03
2023-04-16T16:52:53.846Z,11.10
2023-04-16T16:55:20.860Z,11.13
2023-04-16T16:57:47.236Z,11.08
2023-04-16T17:00:15.078Z,11.06
2023-04-16T17:02:41.893Z,11.02
2023-04-16T17:05:09.007Z,10.97
2023-04-16T17:07:36.093Z,10.95
2023-04-16T17:10:05.307Z,10.89
2023-04-16T17:12:33.026Z,10.89
2023-04-16T17:14:59.351Z,10.85
2023-04-16T17:17:27.017Z,10.78
2023-04-16T17:19:53.686Z,10.66
2023-04-16T17:22:20.010Z,10.58
2023-04-16T17:24:47.087Z,10.48
2023-04-16T17:27:13.481Z,10.44
2023-04-16T17:29:39.812Z,10.44
2023-04-16T17:32:06.223Z,10.45
2023-04-16T17:34:32.584Z,10.47
2023-04-16T17:36:58.890Z,10.42
2023-04-16T17:39:25.337Z,10.42
2023-04-16T17:41:54.667Z,10.40
2023-04-16T17:44:22.875Z,10.30
2023-04-16T17:46:49.193Z,10.24
2023-04-16T17:49:15.607Z,10.19
2023-04-16T17:51:44.317Z,10.17
2023-04-16T17:54:10.906Z,10.14
2023-04-16T17:56:37.633Z,10.08
2023-04-16T17:59:04.631Z,10.07
2023-04-16T18:01:31.115Z,10.11
2023-04-16T18:03:57.690Z,10.09
2023-04-16T18:06:24.122Z,10.05
2023-04-16T18:08:50.527Z,10.01
2023-04-16T18:11:16.867Z,9.99
2023-04-16T18:13:43.531Z,9.89
2023-04-16T18:16:16.884Z,9.84
2023-04-16T18:18:44.340Z,9.81
2023-04-16T18:21:10.770Z,9.76
2023-04-16T18:23:37.198Z,9.72
2023-04-16T18:26:03.721Z,9.72
2023-04-16T18:28:30.226Z,9.68
2023-04-16T18:30:58.994Z,9.63
2023-04-16T18:33:44.398Z,9.61
2023-04-16T18:36:14.562Z,9.59
2023-04-16T18:38:52.931Z,9.50
2023-04-16T18:41:23.886Z,9.45
2023-04-16T18:43:50.478Z,9.37
2023-04-16T18:46:17.027Z,9.32
2023-04-16T18:48:45.071Z,9.31
2023-04-16T18:51:11.911Z,9.28
2023-04-16T18:53:39.276Z,9.30
2023-04-16T18:56:05.834Z,9.27
2023-04-16T18:58:32.271Z,9.24
2023-04-16T19:00:58.640Z,9.22
2023-04-16T19:03:27.223Z,9.19
2023-04-16T19:05:53.941Z,9.15
2023-04-16T19:08:20.541Z,9.14
2023-04-16T19:10:50.198Z,9.11
2023-04-16T19:13:16.984Z,9.09
2023-04-16T19:15:43.297Z,9.09
2023-04-16T19:18:09.694Z,9.06
2023-04-16T19:20:36.877Z,9.06
2023-04-16T19:23:08.811Z,9.03
2023-04-16T19:25:36.424Z,9.03
2023-04-16T19:28:03.677Z,9.01
2023-04-16T19:30:30.471Z,9.00
2023-04-16T19:32:56.909Z,8.97
2023-04-16T19:35:23.382Z,8.99
2023-04-16T19:37:50.414Z,8.99
2023-04-16T19:40:16.905Z,9.02
2023-04-16T19:42:45.169Z,9.02
2023-04-16T19:45:11.520Z,9.01
2023-04-16T19:47:37.915Z,8.99
2023-04-16T19:50:04.484Z,8.97
2023-04-16T19:52:30.834Z,8.97
2023-04-16T19:54:57.195Z,8.98
2023-04-16T19:57:23.577Z,9.00
2023-04-16T19:59:50.060Z,8.99
2023-04-16T20:02:16.424Z,9.00
2023-04-16T20:04:42.779Z,8.99
2023-04-16T20:07:09.115Z,8.98
2023-04-16T20:09:35.707Z,8.98
2023-04-16T20:12:02.619Z,8.96
2023-04-16T20:14:28.931Z,9.00
2023-04-16T20:16:55.337Z,9.02
2023-04-16T20:19:22.035Z,9.03
2023-04-16T20:21:48.360Z,8.99
2023-04-16T20:24:15.339Z,8.97
2023-04-16T20:26:41.830Z,8.95
2023-04-16T20:29:09.979Z,8.98
2023-04-16T20:31:36.574Z,9.00
2023-04-16T20:34:03.707Z,9.01
2023-04-16T20:36:30.321Z,9.01
2023-04-16T20:38:56.663Z,9.02
2023-04-16T20:41:24.970Z,9.01
2023-04-16T20:43:52.857Z,9.02
2023-04-16T20:46:24.305Z,9.00
2023-04-16T20:48:51.574Z,8.97
2023-04-16T20:51:17.943Z,8.97
2023-04-16T20:53:44.396Z,8.94
2023-04-16T20:56:14.544Z,8.93
2023-04-16T20:58:41.447Z,8.90
2023-04-16T21:01:07.830Z,8.86
2023-04-16T21:03:34.386Z,8.84
2023-04-16T21:06:01.657Z,8.83
2023-04-16T21:08:28.034Z,8.85
2023-04-16T21:10:54.384Z,8.89
2023-04-16T21:13:21.514Z,8.89
2023-04-16T21:15:47.975Z,8.88
2023-04-16T21:18:14.450Z,8.89
2023-04-16T21:20:40.909Z,8.87
2023-04-16T21:23:07.714Z,8.87
2023-04-16T21:25:34.062Z,8.87
2023-04-16T21:28:00.449Z,8.86
2023-04-16T21:30:27.052Z,8.86
2023-04-16T21:32:53.427Z,8.84
2023-04-16T21:35:20.000Z,8.79
2023-04-16T21:37:46.358Z,8.76
2023-04-16T21:40:12.873Z,8.78
2023-04-16T21:42:40.006Z,8.78
2023-04-16T21:45:10.130Z,8.74
2023-04-16T21:47:36.904Z,8.72
2023-04-16T21:50:03.590Z,8.72
2023-04-16T21:52:30.469Z,8.71
2023-04-16T21:54:56.797Z,8.68
2023-04-16T21:57:23.159Z,8.67
2023-04-16T21:59:49.504Z,8.69
2023-04-16T22:02:15.891Z,8.70
2023-04-16T22:04:43.443Z,8.71
2023-04-16T22:07:09.874Z,8.70
2023-04-16T22:09:36.385Z,8.69
2023-04-16T22:12:02.884Z,8.69
2023-04-16T22:14:30.118Z,8.69
2023-04-16T22:16:56.604Z,8.67
2023-04-16T22:19:23.045Z,8.69
2023-04-16T22:21:49.465Z,8.67
2023-04-16T22:24:15.799Z,8.68
2023-04-16T22:26:42.325Z,8.68
2023-04-16T22:29:09.088Z,8.69
2023-04-16T22:31:36.051Z,8.66
2023-04-16T22:34:03.530Z,8.63
2023-04-16T22:36:30.865Z,8.62
2023-04-16T22:38:57.317Z,8.62
2023-04-16T22:41:23.739Z,8.60
2023-04-16T22:43:52.474Z,8.55
2023-04-16T22:46:22.296Z,8.54
2023-04-16T22:48:48.808Z,8.52
2023-04-16T22:51:15.179Z,8.51
2023-04-16T22:53:41.734Z,8.46
2023-04-16T22:56:08.089Z,8.45
2023-04-16T22:58:34.520Z,8.46
2023-04-16T23:01:01.516Z,8.45
2023-04-16T23:03:28.404Z,8.45
2023-04-16T23:05:54.859Z,8.46
2023-04-16T23:08:21.170Z,8.47
2023-04-16T23:10:47.490Z,8.48
2023-04-16T23:13:13.842Z,8.48
2023-04-16T23:15:40.384Z,8.45
2023-04-16T23:18:06.891Z,8.45
2023-04-16T23:20:33.268Z,8.41
2023-04-16T23:22:59.595Z,8.42
2023-04-16T23:25:25.945Z,8.43
2023-04-16T23:27:52.335Z,8.43
2023-04-16T23:30:18.723Z,8.42
2023-04-16T23:32:45.136Z,8.42
2023-04-16T23:35:11.489Z,8.45
2023-04-16T23:37:37.887Z,8.45
2023-04-16T23:40:04.882Z,8.46
2023-04-16T23:42:31.214Z,8.46
2023-04-16T23:44:57.536Z,8.46
2023-04-16T23:47:23.868Z,8.45
2023-04-16T23:49:50.308Z,8.43
2023-04-16T23:52:16.627Z,8.41
2023-04-16T23:54:42.950Z,8.41
2023-04-16T23:57:09.831Z,8.41
2023-04-16T23:59:36.156Z,8.40
